createdAt,value
2023-12-26T00:01:59.217Z,0.10
2023-12-26T00:07:21.119Z,0.35
2023-12-26T00:12:44.157Z,0.30
2023-12-26T00:18:06.307Z,0.43
2023-12-26T00:23:28.384Z,0.40
2023-12-26T00:28:50.568Z,0.20
2023-12-26T00:34:12.881Z,0.20
2023-12-26T00:39:35.865Z,0.38
2023-12-26T00:44:58.110Z,0.20
2023-12-26T00:50:20.143Z,0.22
2023-12-26T00:55:42.080Z,0.20
2023-12-26T01:01:04.172Z,0.20
2023-12-26T01:06:26.240Z,0.20
2023-12-26T01:11:48.471Z,0.20
2023-12-26T01:17:10.824Z,0.20
2023-12-26T01:22:32.824Z,0.30
2023-12-26T01:27:54.875Z,0.13
2023-12-26T01:33:17.080Z,0.47
2023-12-26T01:38:39.183Z,0.10
2023-12-26T01:44:01.322Z,0.10
2023-12-26T01:49:23.461Z,0.17
2023-12-26T01:54:45.546Z,0.20
2023-12-26T02:00:08.611Z,0.20
2023-12-26T02:05:31.192Z,0.30
2023-12-26T02:10:53.909Z,0.10
2023-12-26T02:16:22.966Z,0.25
2023-12-26T02:21:45.073Z,0.20
2023-12-26T02:27:07.446Z,0.10
2023-12-26T02:32:32.460Z,0.13
2023-12-26T02:37:55.220Z,0.22
2023-12-26T02:43:17.143Z,0.10
2023-12-26T02:48:39.213Z,0.15
2023-12-26T02:54:01.216Z,0.10
2023-12-26T02:59:23.318Z,0.15
2023-12-26T03:04:45.191Z,0.13
2023-12-26T03:10:10.552Z,0.20
2023-12-26T03:15:32.739Z,0.10
2023-12-26T03:20:54.724Z,0.15
2023-12-26T03:26:16.646Z,0.08
2023-12-26T03:31:46.677Z,0.05
2023-12-26T03:37:08.653Z,0.22
2023-12-26T03:42:30.574Z,0.10
2023-12-26T03:47:53.813Z,0.20
2023-12-26T03:53:16.544Z,0.20
2023-12-26T03:58:38.472Z,0.10
2023-12-26T04:04:00.748Z,0.15
2023-12-26T04:09:22.682Z,0.10
2023-12-26T04:14:44.637Z,0.10
2023-12-26T04:20:06.969Z,0.10
2023-12-26T04:25:28.829Z,0.10
2023-12-26T04:30:50.813Z,0.10
2023-12-26T04:36:12.840Z,0.10
2023-12-26T04:41:34.836Z,0.10
2023-12-26T04:46:56.897Z,0.20
2023-12-26T04:52:20.166Z,0.13
2023-12-26T04:57:42.069Z,0.20
2023-12-26T05:03:04.553Z,0.30
2023-12-26T05:08:26.921Z,0.10
2023-12-26T05:13:48.863Z,0.22
2023-12-26T05:19:10.989Z,0.13
2023-12-26T05:24:48.051Z,0.20
2023-12-26T05:30:13.796Z,0.20
2023-12-26T05:35:36.002Z,0.20
2023-12-26T05:40:57.987Z,0.25
2023-12-26T05:46:22.002Z,0.20
2023-12-26T05:51:44.658Z,0.10
2023-12-26T05:57:08.222Z,0.13
2023-12-26T06:02:30.426Z,0.17
2023-12-26T06:07:52.633Z,0.20
2023-12-26T06:13:14.593Z,0.30
2023-12-26T06:18:36.809Z,0.10
2023-12-26T06:23:59.057Z,0.15
2023-12-26T06:29:20.943Z,0.40
2023-12-26T06:34:42.915Z,0.30
2023-12-26T06:40:05.794Z,1.50
2023-12-26T06:45:28.255Z,0.80
2023-12-26T06:50:50.772Z,0.40
2023-12-26T06:56:12.747Z,0.40
2023-12-26T07:01:35.284Z,0.50
2023-12-26T07:06:57.270Z,0.40
2023-12-26T07:12:19.366Z,0.40
2023-12-26T07:17:41.617Z,0.70
2023-12-26T07:23:03.684Z,0.68
2023-12-26T07:28:25.752Z,0.85
2023-12-26T07:33:49.049Z,0.45
2023-12-26T07:39:14.632Z,0.52
2023-12-26T07:44:36.843Z,0.63
2023-12-26T07:49:59.133Z,0.60
2023-12-26T07:55:21.340Z,0.40
2023-12-26T08:00:43.508Z,0.80
2023-12-26T08:06:05.860Z,1.00
2023-12-26T08:11:28.057Z,0.85
2023-12-26T08:16:50.353Z,0.90
2023-12-26T08:22:12.582Z,0.95
2023-12-26T08:27:34.820Z,0.80
2023-12-26T08:32:57.285Z,0.80
2023-12-26T08:38:20.071Z,0.50
2023-12-26T08:43:42.037Z,0.85
2023-12-26T08:49:05.152Z,0.60
2023-12-26T08:54:27.576Z,0.90
2023-12-26T08:59:49.737Z,0.60
2023-12-26T09:05:13.023Z,0.80
2023-12-26T09:10:35.147Z,0.68
2023-12-26T09:16:02.712Z,0.90
2023-12-26T09:21:24.893Z,1.20
2023-12-26T09:26:47.080Z,1.17
2023-12-26T09:32:09.314Z,1.20
2023-12-26T09:37:36.518Z,0.77
2023-12-26T09:43:04.411Z,0.88
2023-12-26T09:48:26.683Z,1.42
2023-12-26T09:53:56.341Z,1.30
2023-12-26T09:59:20.751Z,1.00
2023-12-26T10:04:43.090Z,1.52
2023-12-26T10:10:06.993Z,1.15
2023-12-26T10:15:29.402Z,0.98
2023-12-26T10:20:51.509Z,1.23
2023-12-26T10:26:13.643Z,1.13
2023-12-26T10:31:35.944Z,1.10
2023-12-26T10:37:00.017Z,1.17
2023-12-26T10:42:22.403Z,1.30
2023-12-26T10:47:49.577Z,1.00
2023-12-26T10:53:17.739Z,1.23
2023-12-26T10:58:42.002Z,1.40
2023-12-26T11:05:00.313Z,0.90
2023-12-26T11:11:18.616Z,0.80
2023-12-26T11:23:36.125Z,1.17
2023-12-26T11:35:53.738Z,1.17
2023-12-26T11:42:11.754Z,1.70
2023-12-26T11:48:29.963Z,1.50
2023-12-26T12:00:47.702Z,1.40
2023-12-26T12:07:06.271Z,1.50
2023-12-26T12:13:24.496Z,1.35
2023-12-26T12:25:42.783Z,1.10
2023-12-26T12:32:01.422Z,1.10
2023-12-26T12:38:19.910Z,1.20
2023-12-26T12:44:38.241Z,1.15
2023-12-26T12:50:56.726Z,1.20
2023-12-26T12:57:15.032Z,1.55
2023-12-26T13:03:33.585Z,1.33
2023-12-26T13:09:52.212Z,1.20
2023-12-26T13:16:10.476Z,1.55
2023-12-26T13:28:28.069Z,1.42
2023-12-26T13:34:46.450Z,1.48
2023-12-26T13:41:05.282Z,1.17
2023-12-26T13:47:23.815Z,1.40
2023-12-26T13:53:23.486Z,1.48
2023-12-26T13:59:23.560Z,1.20
2023-12-26T14:05:23.222Z,1.27
2023-12-26T14:11:23.769Z,1.20
2023-12-26T14:17:23.348Z,1.20
2023-12-26T14:23:22.736Z,1.20
2023-12-26T14:29:22.095Z,1.27
2023-12-26T14:35:21.331Z,1.38
2023-12-26T14:41:20.766Z,1.45
2023-12-26T14:47:19.977Z,0.90
2023-12-26T14:53:19.169Z,0.90
2023-12-26T14:59:18.611Z,1.40
2023-12-26T15:04:40.861Z,1.40
2023-12-26T15:10:03.075Z,2.42
2023-12-26T15:15:25.348Z,1.33
2023-12-26T15:20:47.540Z,1.83
2023-12-26T15:26:18.302Z,1.42
2023-12-26T15:31:40.511Z,1.17
2023-12-26T15:37:02.685Z,0.93
2023-12-26T15:42:24.870Z,1.00
2023-12-26T15:47:47.067Z,1.10
2023-12-26T15:53:09.249Z,1.15
2023-12-26T15:58:31.432Z,1.42
2023-12-26T16:03:57.887Z,1.20
2023-12-26T16:09:20.342Z,1.50
2023-12-26T16:14:42.451Z,1.77
2023-12-26T16:20:04.846Z,1.20
2023-12-26T16:25:27.167Z,1.20
2023-12-26T16:30:49.400Z,1.00
2023-12-26T16:36:12.221Z,1.33
2023-12-26T16:41:34.425Z,1.67
2023-12-26T16:46:58.442Z,1.20
2023-12-26T16:52:20.916Z,1.42
2023-12-26T16:57:42.802Z,1.30
2023-12-26T17:03:05.082Z,4.03
2023-12-26T17:08:28.444Z,2.53
2023-12-26T17:13:50.506Z,2.67
2023-12-26T17:19:12.802Z,2.97
2023-12-26T17:24:34.757Z,2.78
2023-12-26T17:29:56.779Z,2.72
2023-12-26T17:35:19.055Z,3.22
2023-12-26T17:40:41.299Z,3.42
2023-12-26T17:46:04.444Z,3.35
2023-12-26T17:51:26.732Z,2.80
2023-12-26T17:56:48.975Z,3.25
2023-12-26T18:02:13.628Z,2.88
2023-12-26T18:07:37.789Z,2.93
2023-12-26T18:12:59.895Z,2.65
2023-12-26T18:18:22.395Z,3.05
2023-12-26T18:23:44.596Z,3.38
2023-12-26T18:29:06.737Z,3.45
2023-12-26T18:34:29.209Z,3.78
2023-12-26T18:39:51.521Z,3.20
2023-12-26T18:45:14.047Z,3.50
2023-12-26T18:50:36.133Z,3.53
2023-12-26T18:55:58.774Z,3.63
2023-12-26T19:01:21.092Z,3.60
2023-12-26T19:06:45.036Z,2.95
2023-12-26T19:12:09.255Z,3.08
2023-12-26T19:17:31.568Z,3.42
2023-12-26T19:22:55.060Z,3.38
2023-12-26T19:28:19.327Z,4.07
2023-12-26T19:33:42.009Z,4.32
2023-12-26T19:39:05.573Z,4.72
2023-12-26T19:44:29.026Z,3.67
2023-12-26T19:49:51.631Z,4.38
2023-12-26T19:55:13.916Z,3.92
2023-12-26T20:00:36.134Z,4.07
2023-12-26T20:06:00.628Z,3.53
2023-12-26T20:11:22.920Z,4.27
2023-12-26T20:16:46.804Z,3.30
2023-12-26T20:22:08.854Z,3.28
2023-12-26T20:27:30.957Z,4.00
2023-12-26T20:32:54.063Z,3.83
2023-12-26T20:38:16.351Z,4.05
2023-12-26T20:43:38.616Z,3.42
2023-12-26T20:49:01.365Z,3.40
2023-12-26T20:54:24.290Z,3.30
2023-12-26T20:59:46.471Z,3.28
2023-12-26T21:05:09.392Z,3.38
2023-12-26T21:10:31.534Z,2.83
2023-12-26T21:15:54.088Z,3.25
2023-12-26T21:21:16.330Z,3.58
2023-12-26T21:26:38.494Z,3.30
2023-12-26T21:32:01.043Z,2.92
2023-12-26T21:37:23.282Z,3.03
2023-12-26T21:42:45.424Z,3.20
2023-12-26T21:48:07.766Z,3.85
2023-12-26T21:53:29.930Z,3.00
2023-12-26T21:58:51.889Z,2.55
2023-12-26T22:04:15.550Z,2.60
2023-12-26T22:09:37.970Z,2.40
2023-12-26T22:15:09.233Z,2.42
2023-12-26T22:20:39.298Z,2.83
2023-12-26T22:26:02.345Z,2.10
2023-12-26T22:31:24.582Z,2.30
2023-12-26T22:36:46.746Z,2.47
2023-12-26T22:42:08.891Z,2.28
2023-12-26T22:47:31.062Z,2.30
2023-12-26T22:52:53.621Z,2.22
2023-12-26T22:58:16.203Z,2.53
2023-12-26T23:03:39.459Z,3.03
2023-12-26T23:09:02.260Z,2.13
2023-12-26T23:14:24.451Z,2.40
2023-12-26T23:19:49.332Z,2.17
2023-12-26T23:25:14.717Z,2.17
2023-12-26T23:30:36.811Z,1.88
2023-12-26T23:35:59.092Z,2.00
2023-12-26T23:41:21.197Z,2.40
2023-12-26T23:46:46.172Z,2.35
2023-12-26T23:52:08.559Z,2.15
2023-12-26T23:57:30.718Z,1.70
